Historyczne dane pomiarowe

Dodano dane terminowe – wersja testowa.

Dane z okresu 1951-2019

Wersja bazy: 1.34 [2019-03-16, lista zmian], aktualizacja planowana na 2019-04-15

Dane meteo z obszaru Polski uzyskane na podstawie danych udostępnionych przez Instytut Meteorologii i Gospodarki Wodnej – Państwowy Instytut Badawczy.

 

Wybierz Datę:    

       

TemperaturaWilgotnośćZachmurzenieWiatrCiśnienieWidzialnośćZjawiska
 Data    tng td wb rh cc ccl cl cm ch dir g1 g2 mslp ppp      
1994-07-25 00:00:00 13.1--- 10.6 11.785wxwx0wx--1018.6 977.7 0.0---wx
1994-07-25 01:00:00 12.8--- 10.5 11.586wxwxwx0wx--1018.3 977.4----wx
1994-07-25 02:00:00 12.8--- 10.5 11.586wxwxwx0wx--1018.2 977.3----wx
1994-07-25 03:00:00 11.7--- 9.5 10.586wxwxwx0wx--1018.2 977.2----wx
1994-07-25 04:00:00 11.3--- 9.1 10.186wxwxwx0wx--1018.4 977.3----wx
1994-07-25 05:00:00 13.5--- 11.0 12.185wxwxwxwx0wx--1018.3 977.5----wx
1994-07-25 06:00:00 17.0--- 12.4 14.375wxwxwxwx0wx--1017.8 977.5 0.0---wx
1994-07-25 07:00:00 21.5--- 14.3 17.063wxwxwxwx0wx--1017.0 977.3----wx
1994-07-25 08:00:00 25.6--- 14.2 18.449wxwxwxwxwx0wx--1016.4 977.3----wx
1994-07-25 09:00:00 29.7--- 12.1 18.834wxwxwxwxwx0wx--1015.7 977.1----wx
1994-07-25 10:00:00 30.3--- 8.3 17.425wxwxwxwx1wx--1015.6 977.1----wx
1994-07-25 11:00:00 31.4--- 10.3 18.627wxwxwxwx0wx--1015.2 976.9----wx
1994-07-25 12:00:00 30.4--- 8.7 17.626wxwxwxwx1wx--1015.6 977.1 0.0---wx
1994-07-25 13:00:00 31.8--- 10.5 18.827wxwxwxwx2wx--1015.3 977.0----wx
1994-07-25 14:00:00 31.3--- 10.4 18.628wxwxwxwx2wx--1015.2 976.9----wx
1994-07-25 15:00:00 31.5--- 10.5 18.727wxwxwxwx4wx--1014.9 976.6----wx
1994-07-25 16:00:00 30.6--- 11.0 18.630wxwxwxwxwx3wx--1014.7 976.3----wx
1994-07-25 17:00:00 28.1--- 15.1 19.745wxwxwxwxwx0wx--1014.9 976.2----wx
1994-07-25 18:00:00 26.6--- 15.2 19.350wxwxwxwx0wx--1015.1 976.2 0.0---wx
1994-07-25 19:00:00 23.4--- 15.8 18.562wxwxwx1wx--1016.2 976.8----wx
1994-07-25 20:00:00 20.4--- 15.7 17.474wxwxwx0wx--1017.2 977.4----wx
1994-07-25 21:00:00 18.9--- 15.4 16.780wxwxwx1wx--1017.7 977.7----wx
1994-07-25 22:00:00 17.7--- 14.3 15.680wxwxwx0wx--1018.1 977.9----wx
1994-07-25 23:00:00 16.4--- 13.8 14.884wxwxwx0wx--1018.5 978.1----wx

 

Źródłem pochodzenia danych jest Instytut Meteorologii i Gospodarki Wodnej – Państwowy Instytut Badawczy. Dane Instytutu Meteorologii i Gospodarki Wodnej – Państwowego Instytutu Badawczego zostały przetworzone.

Dane źródłowe można odnaleźć na stronie https://dane.imgw.pl